Time;durP1;ratioP1;P1;durP2;ratioP2;P2;SDS_P1;SDS_P2;PMS_P1;PMS_P2;Temp;Humidity;BMP_temperature;BMP_pressure;BME280_temperature;BME280_humidity;BME280_pressure;Samples;Min_cycle;Max_cycle;Signal;HPM_P1;HPM_P2
2022/10/02 00:00:37;;;;;;;4.53;1.73;;;;;;;16.66;100.00;94572.91;5110842;28;20242;-75
2022/10/02 00:03:14;;;;;;;4.80;2.20;;;;;;;16.71;100.00;94574.78;5100527;28;20205;-75
2022/10/02 00:05:51;;;;;;;6.32;1.65;;;;;;;16.74;100.00;94579.59;5111091;28;20179;-75
2022/10/02 00:08:30;;;;;;;3.22;1.80;;;;;;;16.79;100.00;94575.13;5110855;28;20608;-74
2022/10/02 00:11:01;;;;;;;3.65;2.08;;;;;;;16.65;100.00;94552.69;5110735;28;20196;-75
2022/10/02 00:13:57;;;;;;;2.42;1.95;;;;;;;16.80;100.00;94584.69;5110636;28;20181;-75
2022/10/02 00:16:26;;;;;;;3.30;1.70;;;;;;;16.76;100.00;94575.66;5110885;28;20215;-75
2022/10/02 00:18:54;;;;;;;2.90;1.92;;;;;;;16.78;100.00;94572.69;5110816;28;20173;-75
2022/10/02 00:21:37;;;;;;;3.55;2.55;;;;;;;16.80;100.00;94576.72;5110708;28;20173;-75
2022/10/02 00:24:06;;;;;;;5.70;2.60;;;;;;;16.75;100.00;94581.22;5112265;28;20237;-75
2022/10/02 00:26:40;;;;;;;7.28;2.28;;;;;;;16.71;100.00;94580.09;5114908;28;20195;-75
2022/10/02 00:29:12;;;;;;;2.80;2.03;;;;;;;16.76;100.00;94588.13;5114734;28;20202;-74
2022/10/02 00:32:03;;;;;;;4.75;2.03;;;;;;;16.83;100.00;94592.16;5110105;28;20744;-75
2022/10/02 00:34:36;;;;;;;3.28;2.50;;;;;;;16.81;100.00;94593.47;5107677;28;20187;-74
2022/10/02 00:37:36;;;;;;;4.63;2.83;;;;;;;16.81;100.00;94588.16;5114709;28;20237;-75
2022/10/02 00:40:47;;;;;;;6.88;2.63;;;;;;;16.85;100.00;94592.72;5114430;27;20243;-75
2022/10/02 00:43:36;;;;;;;6.80;2.92;;;;;;;16.88;100.00;94600.16;5109581;28;20177;-74
2022/10/02 00:46:19;;;;;;;5.05;2.60;;;;;;;16.83;100.00;94600.16;5072680;28;20682;-75
2022/10/02 00:49:23;;;;;;;3.10;2.70;;;;;;;16.76;100.00;94602.22;5114373;28;20200;-74
2022/10/02 00:51:59;;;;;;;4.95;3.30;;;;;;;16.81;100.00;94609.44;5090064;28;20192;-74
2022/10/02 00:54:27;;;;;;;3.03;2.72;;;;;;;16.71;100.00;94609.34;5114496;28;20204;-74
2022/10/02 00:56:55;;;;;;;4.95;2.70;;;;;;;16.77;100.00;94616.31;5114456;28;20173;-74
2022/10/02 00:59:34;;;;;;;3.42;2.70;;;;;;;16.59;100.00;94589.06;5114416;28;20180;-74
2022/10/02 01:02:10;;;;;;;5.13;3.10;;;;;;;16.79;100.00;94611.53;5107477;28;20180;-75
2022/10/02 01:04:38;;;;;;;4.00;2.97;;;;;;;16.79;100.00;94607.00;5114265;28;20260;-75
2022/10/02 01:07:06;;;;;;;3.10;2.55;;;;;;;16.77;100.00;94614.47;5114132;28;20678;-74
2022/10/02 01:09:32;;;;;;;3.70;3.17;;;;;;;16.77;100.00;94616.31;5113970;28;20200;-74
2022/10/02 01:11:59;;;;;;;5.50;2.97;;;;;;;16.56;100.00;94633.94;5114437;28;20176;-75
2022/10/02 01:14:35;;;;;;;4.10;2.42;;;;;;;16.46;100.00;94631.97;5114028;28;20175;-74
2022/10/02 01:17:02;;;;;;;4.55;2.03;;;;;;;16.47;100.00;94638.91;5113870;28;20252;-74
2022/10/02 01:19:37;;;;;;;4.75;2.28;;;;;;;16.51;100.00;94628.56;5113970;28;20193;-75
2022/10/02 01:22:25;;;;;;;2.72;2.20;;;;;;;16.48;100.00;94637.84;5113902;28;20624;-75
2022/10/02 01:24:58;;;;;;;3.45;2.25;;;;;;;16.47;100.00;94633.59;5113978;28;20628;-75
2022/10/02 01:27:24;;;;;;;5.50;2.40;;;;;;;16.21;100.00;94629.91;5113898;28;20667;-74
2022/10/02 01:29:55;;;;;;;2.22;2.03;;;;;;;16.04;100.00;94636.34;5113689;28;20197;-74
2022/10/02 01:32:24;;;;;;;2.20;2.03;;;;;;;15.84;100.00;94636.94;5113853;28;20173;-74
2022/10/02 01:34:52;;;;;;;2.72;1.98;;;;;;;15.89;100.00;94644.16;5113683;28;20176;-74
2022/10/02 01:37:19;;;;;;;2.63;2.10;;;;;;;15.75;100.00;94639.22;5113662;28;20660;-74
2022/10/02 01:39:44;;;;;;;2.77;1.93;;;;;;;15.71;100.00;94648.75;5113556;28;20239;-74
2022/10/02 01:42:10;;;;;;;3.90;2.33;;;;;;;15.57;100.00;94654.66;5113811;28;20169;-74
2022/10/02 01:44:36;;;;;;;3.17;2.22;;;;;;;15.54;100.00;94655.97;5113707;28;20840;-75
2022/10/02 01:47:05;;;;;;;4.50;2.10;;;;;;;15.61;100.00;94653.91;5113475;28;20173;-75
2022/10/02 01:49:59;;;;;;;2.40;2.20;;;;;;;15.73;100.00;94656.47;5113488;28;20201;-75
2022/10/02 01:52:39;;;;;;;3.50;1.85;;;;;;;15.69;100.00;94663.28;5113094;28;20674;-75
2022/10/02 01:55:23;;;;;;;7.63;2.22;;;;;;;15.73;100.00;94657.25;5113337;28;20168;-75
2022/10/02 01:58:10;;;;;;;3.00;2.08;;;;;;;15.77;100.00;94663.66;5112996;28;20169;-75
2022/10/02 02:00:50;;;;;;;3.97;1.95;;;;;;;15.77;100.00;94654.91;5112915;28;20252;-75
2022/10/02 02:03:21;;;;;;;3.65;1.77;;;;;;;15.80;100.00;94657.06;5113044;28;20176;-75
2022/10/02 02:05:54;;;;;;;2.75;2.15;;;;;;;15.72;100.00;94663.63;5112972;28;20687;-75
2022/10/02 02:08:34;;;;;;;5.10;2.40;;;;;;;15.55;100.00;94662.06;5112743;28;20770;-74
2022/10/02 02:10:59;;;;;;;2.22;1.73;;;;;;;15.44;100.00;94661.91;5106558;28;20255;-75
2022/10/02 02:13:37;;;;;;;3.08;1.45;;;;;;;15.36;100.00;94672.94;5112860;28;20260;-75
2022/10/02 02:16:20;;;;;;;1.98;1.67;;;;;;;15.45;100.00;94690.03;5112544;28;20165;-74
2022/10/02 02:19:04;;;;;;;2.13;1.97;;;;;;;15.48;99.47;94697.50;5112570;28;20218;-75
2022/10/02 02:21:34;;;;;;;4.63;1.90;;;;;;;15.41;99.07;94701.38;5112560;28;20241;-75
2022/10/02 02:24:04;;;;;;;4.37;1.50;;;;;;;15.28;99.30;94697.22;5112684;28;20183;-75
2022/10/02 02:26:31;;;;;;;2.13;1.38;;;;;;;15.32;99.37;94702.81;5112600;28;20179;-75
2022/10/02 02:29:02;;;;;;;1.35;1.20;;;;;;;15.27;100.00;94711.53;5112265;28;20208;-75
2022/10/02 02:31:33;;;;;;;1.65;1.50;;;;;;;15.35;99.48;94713.75;5112490;28;20238;-75
2022/10/02 02:34:08;;;;;;;1.67;1.48;;;;;;;15.36;98.75;94711.91;5112331;28;20658;-75
2022/10/02 02:36:44;;;;;;;1.50;1.27;;;;;;;15.27;97.99;94716.84;5112280;28;20181;-74
2022/10/02 02:39:15;;;;;;;2.30;1.50;;;;;;;15.19;97.67;94719.91;5111939;28;20184;-75
2022/10/02 02:41:47;;;;;;;1.17;1.07;;;;;;;15.31;98.88;94720.59;5112025;28;20704;-74
2022/10/02 02:44:29;;;;;;;1.60;1.20;;;;;;;15.39;98.64;94724.72;5112105;28;20165;-75
2022/10/02 02:47:24;;;;;;;1.60;1.30;;;;;;;15.37;97.79;94722.28;5111558;28;20176;-75
2022/10/02 02:50:01;;;;;;;1.30;1.17;;;;;;;15.26;96.91;94732.97;5108917;28;20209;-75
2022/10/02 02:52:47;;;;;;;2.30;2.10;;;;;;;15.19;96.99;94743.75;5112124;28;20204;-75
2022/10/02 02:55:18;;;;;;;1.33;1.23;;;;;;;15.21;97.17;94739.03;5111898;28;20200;-74
2022/10/02 02:57:54;;;;;;;1.63;1.20;;;;;;;15.20;97.51;94753.31;5111807;28;20764;-75
2022/10/02 03:00:21;;;;;;;2.37;1.10;;;;;;;15.27;97.97;94747.84;5111739;28;20647;-74
2022/10/02 03:02:49;;;;;;;2.83;1.50;;;;;;;15.13;97.82;94726.19;5111938;28;20169;-74
2022/10/02 03:05:17;;;;;;;2.67;1.40;;;;;;;15.25;97.86;94763.19;5111831;28;20173;-74
2022/10/02 03:07:51;;;;;;;2.35;1.75;;;;;;;15.23;97.89;94762.63;5111524;28;20173;-75
2022/10/02 03:10:30;;;;;;;5.07;1.90;;;;;;;15.17;97.93;94780.31;5106883;28;20234;-74
2022/10/02 03:12:58;;;;;;;2.43;1.97;;;;;;;15.22;97.74;94771.66;5111638;28;20592;-75
2022/10/02 03:15:38;;;;;;;3.10;2.00;;;;;;;15.27;97.76;94772.53;5111584;28;20181;-74
2022/10/02 03:18:09;;;;;;;2.20;1.83;;;;;;;15.18;97.13;94781.94;5111709;28;20180;-74
2022/10/02 03:20:51;;;;;;;2.20;2.00;;;;;;;15.03;97.77;94782.50;5109161;28;20538;-74
2022/10/02 03:23:24;;;;;;;3.83;1.80;;;;;;;15.19;97.52;94788.84;5104559;28;20590;-74
2022/10/02 03:25:58;;;;;;;3.17;1.98;;;;;;;15.30;97.91;94795.94;5110720;28;20169;-74
2022/10/02 03:28:31;;;;;;;2.60;2.40;;;;;;;15.31;96.86;94802.81;5108753;27;20694;-74
2022/10/02 03:30:57;;;;;;;2.60;1.90;;;;;;;15.25;96.91;94800.31;5104223;28;20200;-73
2022/10/02 03:33:24;;;;;;;2.37;2.17;;;;;;;15.29;96.84;94801.47;5111291;28;20204;-73
2022/10/02 03:35:50;;;;;;;2.20;2.00;;;;;;;15.22;96.98;94800.81;5110997;27;20184;-73
2022/10/02 03:38:18;;;;;;;4.17;2.47;;;;;;;15.12;97.64;94800.66;5111004;28;20165;-73
2022/10/02 03:40:43;;;;;;;4.20;2.50;;;;;;;15.19;97.66;94815.38;5110877;28;20360;-73
2022/10/02 03:43:21;;;;;;;2.77;2.37;;;;;;;15.24;96.62;94815.44;5110996;28;20679;-73
2022/10/02 03:45:47;;;;;;;4.07;3.57;;;;;;;15.24;96.89;94820.72;5110957;28;20184;-73
2022/10/02 03:48:13;;;;;;;8.33;5.03;;;;;;;15.19;96.67;94819.84;5111003;28;20622;-73
2022/10/02 03:50:39;;;;;;;4.33;3.70;;;;;;;15.14;96.77;94811.81;5110751;28;20579;-73
2022/10/02 03:53:14;;;;;;;3.80;2.43;;;;;;;15.17;96.75;94806.84;5110747;28;20181;-73
2022/10/02 03:55:44;;;;;;;2.60;2.40;;;;;;;15.16;96.59;94807.06;5110794;28;20177;-73
2022/10/02 03:58:13;;;;;;;7.73;2.37;;;;;;;15.17;96.53;94819.28;5109799;28;20166;-73
2022/10/02 04:00:48;;;;;;;3.57;2.53;;;;;;;15.23;96.51;94836.88;5110892;28;20257;-74
2022/10/02 04:03:20;;;;;;;3.53;2.67;;;;;;;15.28;96.79;94837.78;5110701;28;20263;-73
2022/10/02 04:06:13;;;;;;;2.77;2.57;;;;;;;15.25;96.14;94842.75;5110717;28;20242;-73
2022/10/02 04:08:50;;;;;;;3.07;2.77;;;;;;;15.13;96.43;94852.66;5099946;28;20236;-73
2022/10/02 04:11:15;;;;;;;7.40;3.00;;;;;;;14.99;96.93;94841.53;5110571;28;20230;-73
2022/10/02 04:13:52;;;;;;;3.00;2.70;;;;;;;14.92;97.09;94827.63;5110743;28;20169;-73
2022/10/02 04:16:27;;;;;;;3.03;2.70;;;;;;;14.90;95.88;94854.34;5110629;28;20610;-74
2022/10/02 04:19:01;;;;;;;3.40;2.90;;;;;;;14.98;96.69;94861.13;5110335;28;20187;-74
2022/10/02 04:21:42;;;;;;;3.00;2.73;;;;;;;15.02;96.24;94876.31;5110481;28;20177;-74
2022/10/02 04:24:47;;;;;;;3.33;2.53;;;;;;;15.15;96.42;94877.84;5110100;28;20173;-73
2022/10/02 04:27:32;;;;;;;2.97;2.53;;;;;;;15.16;95.63;94874.16;5098395;28;20609;-73
2022/10/02 04:30:02;;;;;;;2.97;2.77;;;;;;;15.11;95.02;94874.09;5110444;28;20219;-73
2022/10/02 04:32:33;;;;;;;4.33;2.93;;;;;;;15.14;95.27;94865.63;5110208;28;20173;-73
2022/10/02 04:34:59;;;;;;;10.23;3.00;;;;;;;15.24;95.23;94873.78;5102947;28;20173;-74
2022/10/02 04:37:43;;;;;;;2.70;2.50;;;;;;;15.31;94.93;94869.13;5109558;28;20185;-75
2022/10/02 04:40:27;;;;;;;3.70;2.30;;;;;;;15.38;94.30;94888.38;5110596;28;20212;-74
2022/10/02 04:43:09;;;;;;;2.80;2.60;;;;;;;15.44;93.11;94887.41;5110486;28;20173;-74
2022/10/02 04:45:43;;;;;;;3.40;2.23;;;;;;;15.46;92.09;94887.97;5110242;28;20180;-75
2022/10/02 04:48:23;;;;;;;2.37;2.17;;;;;;;15.46;91.54;94903.09;5110093;28;20196;-73
2022/10/02 04:50:57;;;;;;;4.57;2.30;;;;;;;15.47;91.60;94910.00;5110112;28;20181;-74
2022/10/02 04:53:31;;;;;;;2.70;2.30;;;;;;;15.55;91.78;94925.56;5109894;28;20169;-73
2022/10/02 04:56:15;;;;;;;2.80;2.20;;;;;;;15.69;91.39;94923.38;5105375;28;20172;-73
2022/10/02 04:59:08;;;;;;;3.90;2.43;;;;;;;15.84;91.12;94921.78;5110130;28;20173;-73
2022/10/02 05:01:39;;;;;;;2.10;2.00;;;;;;;16.13;89.24;94927.81;5109145;28;20195;-74
2022/10/02 05:04:30;;;;;;;2.08;1.98;;;;;;;16.46;87.65;94931.44;5106775;28;20181;-75
2022/10/02 05:07:32;;;;;;;3.60;2.50;;;;;;;17.65;82.83;94934.19;5110489;28;20554;-74
2022/10/02 05:10:06;;;;;;;10.77;4.82;;;;;;;19.03;75.36;94942.03;5111375;28;20201;-74
2022/10/02 05:12:44;;;;;;;26.17;16.20;;;;;;;19.15;74.12;94945.31;5105776;27;20168;-74
2022/10/02 05:15:27;;;;;;;3.53;3.13;;;;;;;19.00;75.81;94955.94;5108083;28;20177;-74
2022/10/02 05:17:55;;;;;;;3.67;2.85;;;;;;;18.72;77.42;94954.47;5097563;28;20691;-75
2022/10/02 05:20:27;;;;;;;2.42;2.22;;;;;;;18.70;76.86;94957.38;5103693;28;20660;-74
2022/10/02 05:23:35;;;;;;;2.65;1.95;;;;;;;18.27;76.07;94954.94;5102067;28;20191;-74
2022/10/02 05:26:25;;;;;;;1.90;1.80;;;;;;;17.39;79.81;94949.06;5071380;28;20227;-76
2022/10/02 05:28:59;;;;;;;2.55;2.13;;;;;;;17.03;80.67;94950.56;5107011;28;20688;-75
2022/10/02 05:31:40;;;;;;;2.88;2.38;;;;;;;16.60;81.23;94932.72;5105436;28;20180;-75
2022/10/02 05:34:23;;;;;;;6.57;2.55;;;;;;;16.18;82.34;94917.25;5103395;28;20652;-75
2022/10/02 05:37:05;;;;;;;2.35;2.15;;;;;;;16.32;83.63;94941.63;5103188;28;20181;-75
2022/10/02 05:39:33;;;;;;;2.45;2.10;;;;;;;16.38;83.22;94940.66;5105181;28;20591;-74
2022/10/02 05:42:23;;;;;;;4.05;2.42;;;;;;;16.25;82.02;94938.34;5113227;28;20169;-75
2022/10/02 05:45:18;;;;;;;3.38;2.55;;;;;;;16.21;83.47;94959.28;5110292;28;20613;-73
2022/10/02 05:47:45;;;;;;;2.47;2.00;;;;;;;16.11;83.24;94961.75;5108421;28;20241;-74
2022/10/02 05:50:10;;;;;;;3.03;1.70;;;;;;;16.06;83.04;94958.25;5113344;28;20282;-73
2022/10/02 05:53:05;;;;;;;2.20;2.00;;;;;;;16.28;82.53;94971.56;5099549;28;20182;-74
2022/10/02 05:55:36;;;;;;;2.93;2.00;;;;;;;16.03;81.88;94975.44;5107279;28;20185;-73
2022/10/02 05:58:12;;;;;;;2.77;2.50;;;;;;;16.09;82.32;94979.78;5109508;28;20652;-73
2022/10/02 06:00:49;;;;;;;3.07;2.30;;;;;;;16.10;82.77;94985.91;5109784;28;20609;-74
2022/10/02 06:03:32;;;;;;;2.67;2.43;;;;;;;16.22;83.20;94983.97;5100467;28;20956;-74
2022/10/02 06:05:57;;;;;;;5.32;2.50;;;;;;;16.37;82.73;94986.06;5105578;28;20188;-74
2022/10/02 06:08:47;;;;;;;3.72;3.00;;;;;;;16.87;81.92;94984.13;5112819;28;20189;-74
2022/10/02 06:11:26;;;;;;;3.00;2.75;;;;;;;17.22;78.98;94982.94;5067992;28;20268;-75
2022/10/02 06:13:59;;;;;;;3.03;2.65;;;;;;;17.15;76.98;94977.81;5112775;28;20603;-73
2022/10/02 06:16:48;;;;;;;2.75;2.25;;;;;;;17.32;76.97;95010.50;5111849;28;20169;-74
2022/10/02 06:19:21;;;;;;;8.20;2.88;;;;;;;17.33;76.99;95006.78;5112826;28;20697;-75
2022/10/02 06:21:56;;;;;;;2.40;2.20;;;;;;;17.86;77.71;95004.44;5111107;28;20207;-75
2022/10/02 06:24:32;;;;;;;5.93;2.40;;;;;;;18.53;74.32;95022.56;5112450;28;20191;-75
2022/10/02 06:27:14;;;;;;;2.58;2.38;;;;;;;19.45;70.70;95028.19;5112390;28;20255;-75
2022/10/02 06:29:53;;;;;;;4.93;2.08;;;;;;;21.37;64.74;95037.34;5106004;28;21011;-74
2022/10/02 06:32:34;;;;;;;4.82;2.47;;;;;;;22.51;61.32;95036.19;5111650;27;20185;-78
2022/10/02 06:34:59;;;;;;;3.83;2.08;;;;;;;24.66;55.76;95027.97;5111411;27;20199;-74
2022/10/02 06:37:40;;;;;;;4.03;2.25;;;;;;;26.36;48.47;95026.00;5111611;28;20185;-75
2022/10/02 06:40:33;;;;;;;3.83;2.03;;;;;;;28.51;45.13;95040.44;5109458;28;20278;-75
2022/10/02 06:43:20;;;;;;;3.35;2.03;;;;;;;30.67;40.26;95045.81;5110925;28;20640;-75
2022/10/02 06:46:07;;;;;;;2.17;1.50;;;;;;;30.92;38.46;95047.50;5111789;28;20278;-75
2022/10/02 06:48:42;;;;;;;4.53;1.80;;;;;;;31.14;37.85;95040.13;5111341;28;20192;-75
2022/10/02 06:51:23;;;;;;;2.03;1.83;;;;;;;31.14;38.03;95046.31;5111448;28;20587;-75
2022/10/02 06:54:23;;;;;;;1.70;1.60;;;;;;;30.57;36.94;95044.28;5110790;28;20679;-75
2022/10/02 06:57:18;;;;;;;5.13;1.90;;;;;;;28.90;39.64;95059.22;5110035;28;20192;-75
2022/10/02 07:00:04;;;;;;;2.00;1.90;;;;;;;26.54;43.84;95057.44;5110398;28;20177;-75
2022/10/02 07:03:23;;;;;;;1.80;1.70;;;;;;;26.18;46.69;95065.53;5110288;28;20265;-75
2022/10/02 07:05:58;;;;;;;2.20;2.00;;;;;;;26.55;45.87;95075.25;5027316;28;20191;-75
2022/10/02 07:08:29;;;;;;;2.30;1.75;;;;;;;26.76;43.85;95076.34;5027277;28;20207;-75
2022/10/02 07:11:17;;;;;;;3.65;2.10;;;;;;;26.81;45.52;95088.97;5069843;28;20189;-75
2022/10/02 07:14:01;;;;;;;3.83;2.05;;;;;;;26.91;44.97;95086.81;5111621;28;20177;-75
2022/10/02 07:16:56;;;;;;;1.83;1.73;;;;;;;27.21;44.15;95095.28;5111482;28;20181;-75
2022/10/02 07:19:44;;;;;;;3.75;1.80;;;;;;;27.10;42.88;95102.03;5111120;28;20169;-75
2022/10/02 07:22:44;;;;;;;1.83;1.73;;;;;;;26.40;43.96;95094.50;5111006;28;20180;-75
2022/10/02 07:25:18;;;;;;;1.83;1.73;;;;;;;26.22;44.92;95091.59;5111435;28;20180;-75
2022/10/02 07:28:07;;;;;;;3.53;1.70;;;;;;;26.05;44.83;95082.53;5111021;28;20231;-75
2022/10/02 07:30:45;;;;;;;1.75;1.58;;;;;;;25.67;45.97;95085.47;5111106;28;20204;-75
2022/10/02 07:33:40;;;;;;;2.20;1.50;;;;;;;25.54;46.94;95083.53;5110954;28;20583;-75
2022/10/02 07:36:12;;;;;;;1.85;1.70;;;;;;;25.09;45.93;95087.88;5110871;28;20181;-75
2022/10/02 07:39:08;;;;;;;3.75;2.05;;;;;;;24.07;49.11;95080.50;5111166;28;20226;-75
2022/10/02 07:41:59;;;;;;;3.22;2.30;;;;;;;23.87;52.12;95088.84;5111138;28;20181;-75
2022/10/02 07:44:40;;;;;;;2.55;1.90;;;;;;;24.06;48.99;95078.91;5079539;28;20193;-75
2022/10/02 07:47:27;;;;;;;2.95;1.85;;;;;;;24.13;47.76;95087.41;5111039;28;20229;-75
2022/10/02 07:50:48;;;;;;;1.50;1.40;;;;;;;24.10;49.03;95092.59;5110969;28;20283;-76
2022/10/02 07:53:40;;;;;;;1.65;1.30;;;;;;;23.81;45.60;95100.75;5100662;28;20185;-75
2022/10/02 07:56:10;;;;;;;2.38;1.30;;;;;;;23.38;46.76;95106.03;5107030;28;20189;-75
2022/10/02 07:58:56;;;;;;;3.28;1.42;;;;;;;23.20;49.48;95099.50;5110802;28;20179;-75
2022/10/02 08:01:27;;;;;;;2.20;1.20;;;;;;;23.30;48.24;95112.03;5110951;28;20260;-75
2022/10/02 08:04:31;;;;;;;5.80;1.50;;;;;;;23.25;48.58;95112.91;5110762;28;20202;-76
2022/10/02 08:07:02;;;;;;;1.90;1.40;;;;;;;22.94;48.44;95120.41;5110557;28;20234;-76
2022/10/02 08:09:36;;;;;;;4.45;1.45;;;;;;;22.77;52.53;95120.00;5110735;28;20275;-76
2022/10/02 08:12:32;;;;;;;2.65;1.27;;;;;;;22.92;52.09;95117.19;5110911;28;20168;-75
2022/10/02 08:14:59;;;;;;;3.20;1.90;;;;;;;23.42;51.35;95125.91;5110769;28;20249;-75
2022/10/02 08:17:34;;;;;;;3.75;1.77;;;;;;;23.32;49.95;95126.78;5110939;28;20165;-75
2022/10/02 08:20:14;;;;;;;1.88;1.13;;;;;;;23.25;49.61;95133.59;5110982;28;20723;-75
2022/10/02 08:22:52;;;;;;;1.27;1.20;;;;;;;23.63;48.59;95124.59;5111013;28;20207;-74
2022/10/02 08:25:24;;;;;;;1.45;1.35;;;;;;;23.78;49.57;95128.22;5110635;28;20252;-75
2022/10/02 08:28:00;;;;;;;2.80;1.50;;;;;;;23.58;49.01;95126.56;5110610;28;20181;-75
2022/10/02 08:30:25;;;;;;;2.03;1.60;;;;;;;23.10;49.30;95104.16;5110654;28;20176;-75
2022/10/02 08:32:52;;;;;;;2.15;1.50;;;;;;;23.03;49.89;95122.50;5110627;28;20252;-75
2022/10/02 08:35:21;;;;;;;1.50;1.38;;;;;;;22.85;49.51;95115.94;5110957;28;20165;-75
2022/10/02 08:37:48;;;;;;;1.30;1.20;;;;;;;22.95;50.76;95092.47;5110318;28;20185;-75
2022/10/02 08:40:51;;;;;;;3.45;1.60;;;;;;;23.27;49.13;95107.22;5110298;28;20599;-75
2022/10/02 08:43:29;;;;;;;3.20;1.63;;;;;;;23.18;48.09;95096.28;5107980;28;20241;-75
2022/10/02 08:46:23;;;;;;;1.95;1.38;;;;;;;23.00;50.46;95099.69;5112626;28;20173;-76
2022/10/02 08:48:57;;;;;;;2.28;1.98;;;;;;;23.27;50.05;95093.78;5113839;28;21103;-75
2022/10/02 08:51:56;;;;;;;2.00;1.80;;;;;;;23.18;48.79;95100.84;5112215;28;20539;-74
2022/10/02 08:54:37;;;;;;;1.83;1.42;;;;;;;23.36;48.64;95077.84;5113453;28;20172;-75
2022/10/02 08:57:44;;;;;;;1.83;1.27;;;;;;;23.41;47.62;95096.59;5115903;27;20570;-76
2022/10/02 09:00:27;;;;;;;1.50;1.35;;;;;;;23.63;49.97;95104.97;5054946;28;20572;-76
2022/10/02 09:03:10;;;;;;;2.22;1.60;;;;;;;23.49;47.39;95098.69;5050083;28;20270;-75
2022/10/02 09:06:00;;;;;;;2.47;1.40;;;;;;;23.36;48.38;95104.72;5083212;28;20193;-75
2022/10/02 09:08:25;;;;;;;1.10;1.10;;;;;;;23.07;48.82;95107.44;5112068;27;20192;-76
2022/10/02 09:11:03;;;;;;;2.10;1.27;;;;;;;23.26;49.18;95094.88;5105686;28;20540;-76
2022/10/02 09:13:50;;;;;;;2.03;1.80;;;;;;;22.91;48.25;95099.50;5106149;28;20639;-75
2022/10/02 09:16:33;;;;;;;1.52;1.05;;;;;;;22.58;48.64;95098.38;5113930;28;20165;-76
2022/10/02 09:19:23;;;;;;;1.65;1.50;;;;;;;22.40;50.43;95100.94;5112778;28;20550;-75
2022/10/02 09:21:54;;;;;;;1.20;1.20;;;;;;;22.16;49.05;95088.19;5084489;28;20555;-75
2022/10/02 09:24:39;;;;;;;1.52;1.42;;;;;;;21.88;50.76;95090.75;5112620;28;20221;-75
2022/10/02 09:27:34;;;;;;;1.70;1.60;;;;;;;21.46;50.97;95091.97;5112230;28;20172;-75
2022/10/02 09:29:59;;;;;;;3.45;1.55;;;;;;;20.94;51.66;95100.34;5107411;28;20201;-75
2022/10/02 09:32:42;;;;;;;1.35;1.25;;;;;;;21.24;52.63;95097.66;5112585;28;20194;-76
2022/10/02 09:35:07;;;;;;;1.80;1.70;;;;;;;21.49;53.31;95088.75;5112040;28;20226;-76
2022/10/02 09:38:10;;;;;;;4.43;1.40;;;;;;;21.69;51.26;95093.25;5101642;28;20170;-75
2022/10/02 09:41:03;;;;;;;1.30;1.20;;;;;;;21.71;52.00;95085.72;5106688;27;20221;-76
2022/10/02 09:44:00;;;;;;;1.75;1.52;;;;;;;21.67;52.15;95098.88;5113818;28;20651;-75
2022/10/02 09:46:41;;;;;;;1.50;1.40;;;;;;;21.70;52.55;95089.50;5108154;28;20181;-75
2022/10/02 09:49:29;;;;;;;3.15;1.40;;;;;;;21.75;51.61;95076.88;5108174;28;20211;-75
2022/10/02 09:52:34;;;;;;;1.70;1.60;;;;;;;21.82;52.52;95087.28;5113437;28;20184;-76
2022/10/02 09:55:37;;;;;;;3.50;1.30;;;;;;;21.74;53.06;95087.84;5113204;28;20180;-75
2022/10/02 09:58:21;;;;;;;1.75;1.65;;;;;;;21.83;52.63;95089.69;5075126;28;20185;-75
2022/10/02 10:01:08;;;;;;;2.30;1.55;;;;;;;21.58;50.34;95068.38;5113104;28;20259;-75
2022/10/02 10:03:37;;;;;;;3.25;1.80;;;;;;;21.39;51.66;95078.88;5113109;28;20605;-76
2022/10/02 10:06:14;;;;;;;1.60;1.50;;;;;;;21.14;51.55;95100.31;5112753;27;20260;-75
2022/10/02 10:08:39;;;;;;;2.97;1.52;;;;;;;21.17;53.23;95089.13;5109765;28;20200;-75
2022/10/02 10:11:28;;;;;;;13.15;2.17;;;;;;;21.16;53.26;95084.00;5113110;28;20177;-75
2022/10/02 10:14:21;;;;;;;3.45;1.60;;;;;;;21.23;55.17;95087.22;5110452;28;20178;-76
2022/10/02 10:17:20;;;;;;;3.35;1.60;;;;;;;21.22;51.92;95088.28;5112798;28;20260;-76
2022/10/02 10:20:07;;;;;;;1.88;1.55;;;;;;;21.07;52.91;95089.91;5112654;28;20215;-75
2022/10/02 10:22:41;;;;;;;1.60;1.50;;;;;;;21.03;54.50;95091.50;5103977;28;20246;-76
2022/10/02 10:25:35;;;;;;;1.52;1.38;;;;;;;21.04;55.41;95092.31;5112801;28;20183;-75
2022/10/02 10:28:25;;;;;;;2.10;1.52;;;;;;;21.16;55.27;95098.19;5102159;27;20177;-76
2022/10/02 10:30:56;;;;;;;1.67;1.58;;;;;;;21.24;54.38;95086.97;5097771;27;20258;-76
2022/10/02 10:33:24;;;;;;;1.38;1.08;;;;;;;21.23;52.74;95087.22;5095661;28;20733;-76
2022/10/02 10:38:31;;;;;;;7.72;2.10;;;;;;;21.27;53.60;95089.09;5104534;28;20181;-77
2022/10/02 10:39:33;;;;;;;1.67;1.58;;;;;;;21.35;54.10;95093.09;5095865;28;20193;-77
2022/10/02 10:42:41;;;;;;;1.70;1.60;;;;;;;21.39;53.70;95073.50;5097067;28;20230;-76
2022/10/02 10:45:36;;;;;;;1.85;1.30;;;;;;;21.36;53.74;95068.69;5073632;28;20209;-76
2022/10/02 10:48:22;;;;;;;2.83;1.50;;;;;;;21.34;53.88;95064.69;5094281;28;20216;-77
2022/10/02 10:50:54;;;;;;;2.83;1.98;;;;;;;21.31;53.23;95059.88;5097840;28;20217;-80
2022/10/02 10:53:57;;;;;;;2.65;1.50;;;;;;;21.30;53.06;95064.44;5106850;28;20177;-76
2022/10/02 10:56:22;;;;;;;2.45;1.40;;;;;;;21.35;54.36;95063.63;5099836;28;20173;-76
2022/10/02 10:59:23;;;;;;;1.90;1.38;;;;;;;21.19;51.52;95068.22;5098807;28;20203;-77
2022/10/02 11:01:57;;;;;;;3.22;1.52;;;;;;;21.20;53.44;95069.81;5096693;28;20199;-76
2022/10/02 11:04:37;;;;;;;2.78;1.60;;;;;;;21.19;55.02;95054.03;5093697;28;20192;-75
2022/10/02 11:07:33;;;;;;;2.15;1.80;;;;;;;21.30;52.30;95059.06;5093631;28;20223;-75
2022/10/02 11:10:17;;;;;;;5.68;1.58;;;;;;;21.23;52.73;95076.50;5094062;28;20205;-76
2022/10/02 11:12:57;;;;;;;1.77;1.65;;;;;;;21.20;52.98;95056.41;5095752;28;20181;-75
2022/10/02 11:15:31;;;;;;;2.03;1.60;;;;;;;21.15;53.95;95056.41;5097821;28;20202;-75
2022/10/02 11:18:16;;;;;;;2.25;1.30;;;;;;;21.13;52.46;95044.38;5095498;28;20181;-76
2022/10/02 11:20:56;;;;;;;4.18;1.45;;;;;;;21.00;51.41;95057.25;5093460;28;20185;-75
2022/10/02 11:23:43;;;;;;;4.10;2.30;;;;;;;20.89;53.06;95046.84;5105024;28;20611;-75
2022/10/02 11:26:22;;;;;;;3.72;1.50;;;;;;;20.88;53.08;95045.22;5102283;28;20169;-75
2022/10/02 11:29:16;;;;;;;1.88;1.23;;;;;;;20.90;51.73;95043.09;5097286;28;20228;-76
2022/10/02 11:32:08;;;;;;;2.05;1.70;;;;;;;20.78;51.38;95055.94;5097446;28;20172;-75
2022/10/02 11:34:49;;;;;;;1.23;1.20;;;;;;;20.52;51.75;95049.81;5091583;28;20660;-75
2022/10/02 11:37:36;;;;;;;1.42;1.27;;;;;;;20.43;54.13;95036.16;5097269;27;20176;-74
2022/10/02 11:40:11;;;;;;;2.50;2.10;;;;;;;20.56;55.74;95049.00;5091643;28;20358;-76
2022/10/02 11:42:59;;;;;;;2.40;1.92;;;;;;;20.68;53.20;95056.75;5096347;28;20204;-76
2022/10/02 11:45:42;;;;;;;1.60;1.50;;;;;;;20.78;54.17;95055.94;5099944;28;20177;-76
2022/10/02 11:48:32;;;;;;;3.03;1.10;;;;;;;20.80;52.91;95054.59;5097769;28;20199;-76
2022/10/02 11:51:30;;;;;;;2.30;2.10;;;;;;;20.82;52.24;95065.06;5097762;28;20614;-75
2022/10/02 11:54:10;;;;;;;4.97;1.27;;;;;;;20.83;51.47;95063.97;5106591;28;20260;-76
2022/10/02 11:57:09;;;;;;;4.13;1.75;;;;;;;20.78;52.58;95055.94;5105121;28;20264;-76
2022/10/02 12:00:07;;;;;;;1.60;1.50;;;;;;;20.58;50.59;95062.13;5105908;28;20538;-76
2022/10/02 12:02:46;;;;;;;1.83;1.50;;;;;;;20.55;53.31;95068.81;5102102;28;20193;-76
2022/10/02 12:05:12;;;;;;;6.07;1.45;;;;;;;20.39;52.72;95061.84;5091713;28;20169;-76
2022/10/02 12:07:40;;;;;;;2.97;1.50;;;;;;;20.41;54.25;95075.75;5094538;28;20655;-76
2022/10/02 12:10:27;;;;;;;2.33;1.60;;;;;;;20.54;54.82;95069.88;5094290;28;20196;-76
2022/10/02 12:13:14;;;;;;;1.10;1.10;;;;;;;20.65;53.40;95065.34;5103190;28;20209;-76
2022/10/02 12:16:05;;;;;;;4.28;1.48;;;;;;;20.67;54.57;95087.25;5096319;28;20184;-76
2022/10/02 12:18:44;;;;;;;1.40;1.30;;;;;;;20.73;54.18;95063.97;5102071;28;20179;-74
2022/10/02 12:28:03;;;;;;;1.58;1.48;;;;;;;20.67;53.37;95060.50;5096253;28;20246;-77
2022/10/02 12:30:42;;;;;;;1.88;1.63;;;;;;;20.65;53.48;95062.66;5100899;27;20183;-75
2022/10/02 12:33:13;;;;;;;1.63;1.52;;;;;;;20.69;52.90;95069.88;5099091;28;20196;-75
2022/10/02 12:35:46;;;;;;;2.97;1.80;;;;;;;20.70;54.04;95059.97;5103428;27;20192;-76
2022/10/02 12:38:37;;;;;;;2.88;1.70;;;;;;;20.73;54.13;95058.63;5103403;28;20563;-75